Armbrust, Pennsylvania
Current Conditions -  °F | °C
As of 4:50 PM on Sunday 25 Jan 2015 (Local Time) from KLBE Reporting Station
Haze Haze  
Wind Chill: 30°   Ceiling: 800
Heat Index: 30°   Visibility: 2mi
Dew Point: 30°   Wind: 0mph
Humidity: 100%   Direction: NA
Pressure: 29.79"   Gusts: NA
Location:  40.22°N, 79.55°W
Report Text: KLBE 252150Z 00000KT 2SM BR BKN008 OVC030 M01/M01 A2979
Loading
Personal Weather Stations






























Interactive Weather Map New forecast layout! Learn more

10-Day Weather Forecast

Advertisements
Track Severe Weather on mobile